sensor_id;sensor_type;location;lat;lon;timestamp;P1;durP1;ratioP1;P2;durP2;ratioP2
63536;SDS011;49686;51.880;5.632;2023-02-15T00:01:39;36.53;;;20.58;;
63536;SDS011;49686;51.880;5.632;2023-02-15T00:04:07;41.42;;;20.73;;
63536;SDS011;49686;51.880;5.632;2023-02-15T00:06:34;43.10;;;21.17;;
63536;SDS011;49686;51.880;5.632;2023-02-15T00:09:01;41.10;;;21.60;;
63536;SDS011;49686;51.880;5.632;2023-02-15T00:11:29;43.65;;;21.30;;
63536;SDS011;49686;51.880;5.632;2023-02-15T00:13:56;40.05;;;20.90;;
63536;SDS011;49686;51.880;5.632;2023-02-15T00:16:24;42.28;;;21.85;;
63536;SDS011;49686;51.880;5.632;2023-02-15T00:18:51;41.17;;;20.48;;
63536;SDS011;49686;51.880;5.632;2023-02-15T00:21:18;42.47;;;21.98;;
63536;SDS011;49686;51.880;5.632;2023-02-15T00:23:45;39.22;;;20.45;;
63536;SDS011;49686;51.880;5.632;2023-02-15T00:26:11;41.78;;;21.10;;
63536;SDS011;49686;51.880;5.632;2023-02-15T00:28:38;40.00;;;20.70;;
63536;SDS011;49686;51.880;5.632;2023-02-15T00:31:05;44.22;;;21.85;;
63536;SDS011;49686;51.880;5.632;2023-02-15T00:33:35;46.53;;;21.83;;
63536;SDS011;49686;51.880;5.632;2023-02-15T00:36:03;39.10;;;20.88;;
63536;SDS011;49686;51.880;5.632;2023-02-15T00:38:31;35.55;;;19.83;;
63536;SDS011;49686;51.880;5.632;2023-02-15T00:40:59;33.60;;;19.42;;
63536;SDS011;49686;51.880;5.632;2023-02-15T00:43:27;35.08;;;18.13;;
63536;SDS011;49686;51.880;5.632;2023-02-15T00:45:55;36.00;;;18.15;;
63536;SDS011;49686;51.880;5.632;2023-02-15T00:48:22;33.33;;;18.17;;
63536;SDS011;49686;51.880;5.632;2023-02-15T00:50:51;35.28;;;18.65;;
63536;SDS011;49686;51.880;5.632;2023-02-15T00:53:19;31.70;;;17.65;;
63536;SDS011;49686;51.880;5.632;2023-02-15T00:55:47;27.63;;;15.80;;
63536;SDS011;49686;51.880;5.632;2023-02-15T00:58:14;27.88;;;16.20;;
63536;SDS011;49686;51.880;5.632;2023-02-15T01:00:42;33.47;;;17.27;;
63536;SDS011;49686;51.880;5.632;2023-02-15T01:03:11;31.58;;;16.80;;
63536;SDS011;49686;51.880;5.632;2023-02-15T01:05:38;35.20;;;18.37;;
63536;SDS011;49686;51.880;5.632;2023-02-15T01:08:07;37.20;;;18.45;;
63536;SDS011;49686;51.880;5.632;2023-02-15T01:10:35;31.48;;;18.50;;
63536;SDS011;49686;51.880;5.632;2023-02-15T01:13:04;31.63;;;16.80;;
63536;SDS011;49686;51.880;5.632;2023-02-15T01:15:33;30.27;;;15.95;;
63536;SDS011;49686;51.880;5.632;2023-02-15T01:18:01;30.95;;;15.95;;
63536;SDS011;49686;51.880;5.632;2023-02-15T01:20:28;32.42;;;16.10;;
63536;SDS011;49686;51.880;5.632;2023-02-15T01:22:57;35.17;;;18.15;;
63536;SDS011;49686;51.880;5.632;2023-02-15T01:25:26;32.38;;;16.63;;
63536;SDS011;49686;51.880;5.632;2023-02-15T01:27:52;31.48;;;16.10;;
63536;SDS011;49686;51.880;5.632;2023-02-15T01:30:19;34.83;;;16.10;;
63536;SDS011;49686;51.880;5.632;2023-02-15T01:32:46;34.63;;;17.10;;
63536;SDS011;49686;51.880;5.632;2023-02-15T01:35:13;34.90;;;15.27;;
63536;SDS011;49686;51.880;5.632;2023-02-15T01:37:40;39.03;;;18.08;;
63536;SDS011;49686;51.880;5.632;2023-02-15T01:40:07;31.67;;;15.95;;
63536;SDS011;49686;51.880;5.632;2023-02-15T01:42:40;33.20;;;17.90;;
63536;SDS011;49686;51.880;5.632;2023-02-15T01:45:14;37.15;;;18.58;;
63536;SDS011;49686;51.880;5.632;2023-02-15T01:47:47;34.88;;;16.25;;
63536;SDS011;49686;51.880;5.632;2023-02-15T01:50:19;35.80;;;17.25;;
63536;SDS011;49686;51.880;5.632;2023-02-15T01:52:54;33.15;;;16.77;;
63536;SDS011;49686;51.880;5.632;2023-02-15T01:55:24;36.17;;;16.38;;
63536;SDS011;49686;51.880;5.632;2023-02-15T01:57:55;32.38;;;17.38;;
63536;SDS011;49686;51.880;5.632;2023-02-15T02:00:22;30.83;;;16.05;;
63536;SDS011;49686;51.880;5.632;2023-02-15T02:02:49;34.42;;;16.38;;
63536;SDS011;49686;51.880;5.632;2023-02-15T02:05:20;36.58;;;16.45;;
63536;SDS011;49686;51.880;5.632;2023-02-15T02:07:46;36.33;;;17.17;;
63536;SDS011;49686;51.880;5.632;2023-02-15T02:10:17;33.42;;;16.30;;
63536;SDS011;49686;51.880;5.632;2023-02-15T02:12:47;26.58;;;13.10;;
63536;SDS011;49686;51.880;5.632;2023-02-15T02:15:18;38.90;;;16.75;;
63536;SDS011;49686;51.880;5.632;2023-02-15T02:17:53;32.58;;;16.48;;
63536;SDS011;49686;51.880;5.632;2023-02-15T02:23:25;35.08;;;16.02;;
63536;SDS011;49686;51.880;5.632;2023-02-15T02:29:27;30.60;;;14.90;;
63536;SDS011;49686;51.880;5.632;2023-02-15T02:35:45;30.33;;;14.32;;
63536;SDS011;49686;51.880;5.632;2023-02-15T02:38:20;34.20;;;15.82;;
63536;SDS011;49686;51.880;5.632;2023-02-15T02:40:55;28.00;;;13.27;;
63536;SDS011;49686;51.880;5.632;2023-02-15T02:43:28;32.15;;;16.33;;
63536;SDS011;49686;51.880;5.632;2023-02-15T02:46:00;28.65;;;12.48;;
63536;SDS011;49686;51.880;5.632;2023-02-15T02:48:34;31.00;;;15.38;;
63536;SDS011;49686;51.880;5.632;2023-02-15T02:51:01;26.35;;;11.63;;
63536;SDS011;49686;51.880;5.632;2023-02-15T02:53:29;31.25;;;15.95;;
63536;SDS011;49686;51.880;5.632;2023-02-15T02:55:58;37.20;;;15.50;;
63536;SDS011;49686;51.880;5.632;2023-02-15T02:58:30;29.23;;;14.40;;
63536;SDS011;49686;51.880;5.632;2023-02-15T03:01:02;35.38;;;16.40;;
63536;SDS011;49686;51.880;5.632;2023-02-15T03:03:34;33.22;;;15.00;;
63536;SDS011;49686;51.880;5.632;2023-02-15T03:06:05;35.03;;;16.38;;
63536;SDS011;49686;51.880;5.632;2023-02-15T03:08:36;29.83;;;15.15;;
63536;SDS011;49686;51.880;5.632;2023-02-15T03:11:06;31.67;;;14.52;;
63536;SDS011;49686;51.880;5.632;2023-02-15T03:13:33;31.05;;;15.57;;
63536;SDS011;49686;51.880;5.632;2023-02-15T03:16:01;34.50;;;15.95;;
63536;SDS011;49686;51.880;5.632;2023-02-15T03:18:33;31.88;;;14.55;;
63536;SDS011;49686;51.880;5.632;2023-02-15T03:21:04;34.25;;;15.50;;
63536;SDS011;49686;51.880;5.632;2023-02-15T03:23:33;31.60;;;16.02;;
63536;SDS011;49686;51.880;5.632;2023-02-15T03:26:03;33.25;;;16.17;;
63536;SDS011;49686;51.880;5.632;2023-02-15T03:28:33;34.00;;;15.88;;
63536;SDS011;49686;51.880;5.632;2023-02-15T03:31:03;31.85;;;14.68;;
63536;SDS011;49686;51.880;5.632;2023-02-15T03:33:32;33.70;;;15.63;;
63536;SDS011;49686;51.880;5.632;2023-02-15T03:36:06;34.15;;;15.98;;
63536;SDS011;49686;51.880;5.632;2023-02-15T03:38:40;36.35;;;15.55;;
63536;SDS011;49686;51.880;5.632;2023-02-15T03:41:13;35.72;;;15.65;;
63536;SDS011;49686;51.880;5.632;2023-02-15T03:43:44;31.63;;;15.35;;
63536;SDS011;49686;51.880;5.632;2023-02-15T03:46:17;30.27;;;14.25;;
63536;SDS011;49686;51.880;5.632;2023-02-15T03:48:51;27.70;;;14.43;;
63536;SDS011;49686;51.880;5.632;2023-02-15T03:51:21;30.25;;;15.10;;
63536;SDS011;49686;51.880;5.632;2023-02-15T03:53:51;33.20;;;15.70;;
63536;SDS011;49686;51.880;5.632;2023-02-15T03:56:20;33.78;;;15.88;;
63536;SDS011;49686;51.880;5.632;2023-02-15T03:58:47;32.17;;;15.73;;
63536;SDS011;49686;51.880;5.632;2023-02-15T04:01:15;34.80;;;16.30;;
63536;SDS011;49686;51.880;5.632;2023-02-15T04:03:51;31.75;;;14.60;;
63536;SDS011;49686;51.880;5.632;2023-02-15T04:06:22;26.30;;;13.13;;
63536;SDS011;49686;51.880;5.632;2023-02-15T04:08:49;33.17;;;16.05;;
63536;SDS011;49686;51.880;5.632;2023-02-15T04:11:15;32.75;;;14.88;;
63536;SDS011;49686;51.880;5.632;2023-02-15T04:13:42;32.60;;;14.93;;
63536;SDS011;49686;51.880;5.632;2023-02-15T04:16:10;31.73;;;14.57;;
63536;SDS011;49686;51.880;5.632;2023-02-15T04:18:38;34.28;;;14.82;;
63536;SDS011;49686;51.880;5.632;2023-02-15T04:21:07;34.53;;;15.68;;
63536;SDS011;49686;51.880;5.632;2023-02-15T04:23:33;33.80;;;16.47;;
63536;SDS011;49686;51.880;5.632;2023-02-15T04:26:02;30.92;;;15.00;;
63536;SDS011;49686;51.880;5.632;2023-02-15T04:28:29;29.38;;;13.32;;
63536;SDS011;49686;51.880;5.632;2023-02-15T04:30:56;32.97;;;14.20;;
63536;SDS011;49686;51.880;5.632;2023-02-15T04:33:24;31.42;;;14.68;;
63536;SDS011;49686;51.880;5.632;2023-02-15T04:35:51;31.92;;;14.60;;
63536;SDS011;49686;51.880;5.632;2023-02-15T04:38:19;31.90;;;15.50;;
63536;SDS011;49686;51.880;5.632;2023-02-15T04:40:48;30.60;;;15.23;;
63536;SDS011;49686;51.880;5.632;2023-02-15T04:43:16;36.42;;;15.25;;
63536;SDS011;49686;51.880;5.632;2023-02-15T04:45:46;31.73;;;15.32;;
63536;SDS011;49686;51.880;5.632;2023-02-15T04:48:14;28.42;;;14.45;;
63536;SDS011;49686;51.880;5.632;2023-02-15T04:50:41;33.15;;;15.45;;
63536;SDS011;49686;51.880;5.632;2023-02-15T04:53:08;29.80;;;13.88;;
63536;SDS011;49686;51.880;5.632;2023-02-15T04:55:36;35.28;;;15.20;;
63536;SDS011;49686;51.880;5.632;2023-02-15T04:58:03;32.80;;;14.80;;
63536;SDS011;49686;51.880;5.632;2023-02-15T05:00:29;34.22;;;16.05;;
63536;SDS011;49686;51.880;5.632;2023-02-15T05:02:56;33.67;;;15.50;;
63536;SDS011;49686;51.880;5.632;2023-02-15T05:05:23;30.42;;;13.88;;
63536;SDS011;49686;51.880;5.632;2023-02-15T05:07:50;32.08;;;14.02;;
63536;SDS011;49686;51.880;5.632;2023-02-15T05:10:17;36.10;;;15.65;;
63536;SDS011;49686;51.880;5.632;2023-02-15T05:12:45;32.58;;;14.82;;
63536;SDS011;49686;51.880;5.632;2023-02-15T05:15:12;31.80;;;14.38;;
63536;SDS011;49686;51.880;5.632;2023-02-15T05:17:39;30.25;;;13.35;;
63536;SDS011;49686;51.880;5.632;2023-02-15T05:20:06;35.40;;;15.55;;
63536;SDS011;49686;51.880;5.632;2023-02-15T05:22:33;31.45;;;14.60;;
63536;SDS011;49686;51.880;5.632;2023-02-15T05:25:00;33.80;;;15.60;;
63536;SDS011;49686;51.880;5.632;2023-02-15T05:27:27;31.48;;;14.50;;
63536;SDS011;49686;51.880;5.632;2023-02-15T05:29:55;36.08;;;15.65;;
63536;SDS011;49686;51.880;5.632;2023-02-15T05:32:22;34.55;;;15.15;;
63536;SDS011;49686;51.880;5.632;2023-02-15T05:34:49;35.17;;;16.23;;
63536;SDS011;49686;51.880;5.632;2023-02-15T05:37:16;34.83;;;15.63;;
63536;SDS011;49686;51.880;5.632;2023-02-15T05:39:43;34.60;;;15.00;;
63536;SDS011;49686;51.880;5.632;2023-02-15T05:42:09;34.15;;;14.68;;
63536;SDS011;49686;51.880;5.632;2023-02-15T05:44:36;36.83;;;16.10;;
63536;SDS011;49686;51.880;5.632;2023-02-15T05:47:04;34.10;;;15.98;;
63536;SDS011;49686;51.880;5.632;2023-02-15T05:49:31;38.28;;;16.30;;
63536;SDS011;49686;51.880;5.632;2023-02-15T05:51:58;33.55;;;16.20;;
63536;SDS011;49686;51.880;5.632;2023-02-15T05:54:25;34.90;;;15.85;;
63536;SDS011;49686;51.880;5.632;2023-02-15T05:56:52;36.60;;;15.70;;
63536;SDS011;49686;51.880;5.632;2023-02-15T05:59:18;31.80;;;14.15;;
63536;SDS011;49686;51.880;5.632;2023-02-15T06:01:45;31.55;;;14.23;;
63536;SDS011;49686;51.880;5.632;2023-02-15T06:04:13;34.33;;;15.65;;
63536;SDS011;49686;51.880;5.632;2023-02-15T06:06:40;34.75;;;15.40;;
63536;SDS011;49686;51.880;5.632;2023-02-15T06:09:07;30.50;;;13.63;;
63536;SDS011;49686;51.880;5.632;2023-02-15T06:11:36;31.42;;;13.95;;
63536;SDS011;49686;51.880;5.632;2023-02-15T06:14:02;37.35;;;16.05;;
63536;SDS011;49686;51.880;5.632;2023-02-15T06:16:29;32.30;;;14.15;;
63536;SDS011;49686;51.880;5.632;2023-02-15T06:18:56;37.50;;;16.55;;
63536;SDS011;49686;51.880;5.632;2023-02-15T06:21:24;31.73;;;14.88;;
63536;SDS011;49686;51.880;5.632;2023-02-15T06:23:51;38.92;;;17.02;;
63536;SDS011;49686;51.880;5.632;2023-02-15T06:26:20;40.65;;;16.35;;
63536;SDS011;49686;51.880;5.632;2023-02-15T06:28:47;36.00;;;17.30;;
63536;SDS011;49686;51.880;5.632;2023-02-15T06:31:16;33.33;;;16.27;;
63536;SDS011;49686;51.880;5.632;2023-02-15T06:33:44;39.20;;;14.70;;
63536;SDS011;49686;51.880;5.632;2023-02-15T06:36:11;32.00;;;13.45;;
63536;SDS011;49686;51.880;5.632;2023-02-15T06:38:39;34.88;;;15.57;;
63536;SDS011;49686;51.880;5.632;2023-02-15T06:41:06;39.22;;;16.85;;
63536;SDS011;49686;51.880;5.632;2023-02-15T06:43:32;37.70;;;17.60;;
63536;SDS011;49686;51.880;5.632;2023-02-15T06:46:00;36.85;;;16.48;;
63536;SDS011;49686;51.880;5.632;2023-02-15T06:48:27;35.08;;;15.43;;
63536;SDS011;49686;51.880;5.632;2023-02-15T06:50:54;38.90;;;16.73;;
63536;SDS011;49686;51.880;5.632;2023-02-15T06:53:21;28.50;;;14.50;;
63536;SDS011;49686;51.880;5.632;2023-02-15T06:55:49;35.35;;;16.60;;
63536;SDS011;49686;51.880;5.632;2023-02-15T06:58:16;33.90;;;16.57;;
63536;SDS011;49686;51.880;5.632;2023-02-15T07:00:43;37.60;;;15.93;;
63536;SDS011;49686;51.880;5.632;2023-02-15T07:03:12;34.90;;;16.00;;
63536;SDS011;49686;51.880;5.632;2023-02-15T07:05:40;39.75;;;16.75;;
63536;SDS011;49686;51.880;5.632;2023-02-15T07:08:08;38.50;;;16.27;;
63536;SDS011;49686;51.880;5.632;2023-02-15T07:10:35;33.83;;;13.57;;
63536;SDS011;49686;51.880;5.632;2023-02-15T07:13:03;27.33;;;13.93;;
63536;SDS011;49686;51.880;5.632;2023-02-15T07:15:30;42.17;;;19.03;;
63536;SDS011;49686;51.880;5.632;2023-02-15T07:17:57;41.28;;;17.55;;
63536;SDS011;49686;51.880;5.632;2023-02-15T07:20:26;35.63;;;15.85;;
63536;SDS011;49686;51.880;5.632;2023-02-15T07:22:53;39.53;;;18.45;;
63536;SDS011;49686;51.880;5.632;2023-02-15T07:25:19;36.10;;;15.55;;
63536;SDS011;49686;51.880;5.632;2023-02-15T07:27:46;36.40;;;16.13;;
63536;SDS011;49686;51.880;5.632;2023-02-15T07:30:15;35.28;;;15.68;;
63536;SDS011;49686;51.880;5.632;2023-02-15T07:32:43;40.33;;;18.02;;
63536;SDS011;49686;51.880;5.632;2023-02-15T07:35:10;35.88;;;15.27;;
63536;SDS011;49686;51.880;5.632;2023-02-15T07:37:36;39.17;;;18.00;;
63536;SDS011;49686;51.880;5.632;2023-02-15T07:40:04;32.28;;;14.73;;
63536;SDS011;49686;51.880;5.632;2023-02-15T07:42:32;36.28;;;16.45;;
63536;SDS011;49686;51.880;5.632;2023-02-15T07:44:58;41.38;;;15.77;;
63536;SDS011;49686;51.880;5.632;2023-02-15T07:47:27;38.15;;;17.50;;
63536;SDS011;49686;51.880;5.632;2023-02-15T07:49:54;39.25;;;16.60;;
63536;SDS011;49686;51.880;5.632;2023-02-15T07:52:21;36.03;;;16.73;;
63536;SDS011;49686;51.880;5.632;2023-02-15T07:54:47;40.60;;;18.52;;
63536;SDS011;49686;51.880;5.632;2023-02-15T07:57:14;42.00;;;20.38;;
63536;SDS011;49686;51.880;5.632;2023-02-15T08:00:25;48.83;;;20.27;;
63536;SDS011;49686;51.880;5.632;2023-02-15T08:02:53;39.15;;;18.33;;
63536;SDS011;49686;51.880;5.632;2023-02-15T08:05:20;45.45;;;19.55;;
63536;SDS011;49686;51.880;5.632;2023-02-15T08:07:47;43.60;;;21.33;;
63536;SDS011;49686;51.880;5.632;2023-02-15T08:10:14;48.75;;;22.23;;
63536;SDS011;49686;51.880;5.632;2023-02-15T08:12:41;45.20;;;19.02;;
63536;SDS011;49686;51.880;5.632;2023-02-15T08:15:09;44.67;;;19.27;;
63536;SDS011;49686;51.880;5.632;2023-02-15T08:17:37;41.45;;;19.15;;
63536;SDS011;49686;51.880;5.632;2023-02-15T08:20:04;42.80;;;20.55;;
63536;SDS011;49686;51.880;5.632;2023-02-15T08:22:32;47.78;;;20.95;;
63536;SDS011;49686;51.880;5.632;2023-02-15T08:24:58;45.75;;;21.05;;
63536;SDS011;49686;51.880;5.632;2023-02-15T08:27:25;43.08;;;19.48;;
63536;SDS011;49686;51.880;5.632;2023-02-15T08:29:52;44.45;;;21.17;;
63536;SDS011;49686;51.880;5.632;2023-02-15T08:32:19;41.45;;;20.15;;
63536;SDS011;49686;51.880;5.632;2023-02-15T08:34:47;41.53;;;19.42;;
63536;SDS011;49686;51.880;5.632;2023-02-15T08:37:15;35.65;;;17.58;;
63536;SDS011;49686;51.880;5.632;2023-02-15T08:39:43;38.92;;;18.15;;
63536;SDS011;49686;51.880;5.632;2023-02-15T08:42:10;43.72;;;19.48;;
63536;SDS011;49686;51.880;5.632;2023-02-15T08:44:36;48.33;;;23.48;;
63536;SDS011;49686;51.880;5.632;2023-02-15T08:47:03;46.58;;;21.20;;
63536;SDS011;49686;51.880;5.632;2023-02-15T08:49:30;45.50;;;21.33;;
63536;SDS011;49686;51.880;5.632;2023-02-15T08:51:58;41.42;;;20.02;;
63536;SDS011;49686;51.880;5.632;2023-02-15T08:54:25;46.35;;;22.67;;
63536;SDS011;49686;51.880;5.632;2023-02-15T08:56:52;44.58;;;20.52;;
63536;SDS011;49686;51.880;5.632;2023-02-15T08:59:19;43.53;;;21.02;;
63536;SDS011;49686;51.880;5.632;2023-02-15T09:01:49;41.75;;;20.80;;
63536;SDS011;49686;51.880;5.632;2023-02-15T09:04:19;43.75;;;21.33;;
63536;SDS011;49686;51.880;5.632;2023-02-15T09:06:47;46.30;;;24.55;;
63536;SDS011;49686;51.880;5.632;2023-02-15T09:09:17;36.95;;;19.58;;
63536;SDS011;49686;51.880;5.632;2023-02-15T09:11:45;48.83;;;24.65;;
63536;SDS011;49686;51.880;5.632;2023-02-15T09:14:15;34.45;;;18.00;;
63536;SDS011;49686;51.880;5.632;2023-02-15T09:16:44;39.80;;;20.05;;
63536;SDS011;49686;51.880;5.632;2023-02-15T09:19:11;42.73;;;21.87;;
63536;SDS011;49686;51.880;5.632;2023-02-15T09:21:38;45.83;;;22.67;;
63536;SDS011;49686;51.880;5.632;2023-02-15T09:24:06;47.97;;;23.10;;
63536;SDS011;49686;51.880;5.632;2023-02-15T09:29:03;40.25;;;19.67;;
63536;SDS011;49686;51.880;5.632;2023-02-15T09:31:31;43.60;;;22.90;;
63536;SDS011;49686;51.880;5.632;2023-02-15T09:34:02;40.13;;;21.75;;
63536;SDS011;49686;51.880;5.632;2023-02-15T09:36:30;41.03;;;21.50;;
63536;SDS011;49686;51.880;5.632;2023-02-15T09:41:37;37.42;;;19.65;;
63536;SDS011;49686;51.880;5.632;2023-02-15T09:44:28;41.25;;;22.83;;
63536;SDS011;49686;51.880;5.632;2023-02-15T09:47:11;43.45;;;23.27;;
63536;SDS011;49686;51.880;5.632;2023-02-15T09:49:50;46.08;;;23.90;;
63536;SDS011;49686;51.880;5.632;2023-02-15T09:52:27;43.35;;;23.98;;
63536;SDS011;49686;51.880;5.632;2023-02-15T09:55:12;37.97;;;18.95;;
63536;SDS011;49686;51.880;5.632;2023-02-15T09:57:53;38.65;;;19.55;;
63536;SDS011;49686;51.880;5.632;2023-02-15T10:00:28;41.15;;;24.15;;
63536;SDS011;49686;51.880;5.632;2023-02-15T10:03:04;42.85;;;23.25;;
63536;SDS011;49686;51.880;5.632;2023-02-15T10:05:44;39.58;;;22.52;;
63536;SDS011;49686;51.880;5.632;2023-02-15T10:08:30;39.92;;;23.13;;
63536;SDS011;49686;51.880;5.632;2023-02-15T10:11:09;41.50;;;22.52;;
63536;SDS011;49686;51.880;5.632;2023-02-15T10:13:43;35.83;;;18.38;;
63536;SDS011;49686;51.880;5.632;2023-02-15T10:16:19;38.50;;;21.63;;
63536;SDS011;49686;51.880;5.632;2023-02-15T10:18:55;46.67;;;24.15;;
63536;SDS011;49686;51.880;5.632;2023-02-15T10:21:36;46.45;;;25.48;;
63536;SDS011;49686;51.880;5.632;2023-02-15T10:24:16;40.42;;;23.48;;
63536;SDS011;49686;51.880;5.632;2023-02-15T10:27:07;39.45;;;21.80;;
63536;SDS011;49686;51.880;5.632;2023-02-15T10:29:41;36.60;;;20.75;;
63536;SDS011;49686;51.880;5.632;2023-02-15T10:32:16;42.75;;;23.33;;
63536;SDS011;49686;51.880;5.632;2023-02-15T10:34:49;38.60;;;22.73;;
63536;SDS011;49686;51.880;5.632;2023-02-15T10:37:29;43.17;;;24.08;;
63536;SDS011;49686;51.880;5.632;2023-02-15T10:42:41;41.15;;;23.33;;
63536;SDS011;49686;51.880;5.632;2023-02-15T10:45:18;39.70;;;21.55;;
63536;SDS011;49686;51.880;5.632;2023-02-15T10:47:58;34.33;;;20.10;;
63536;SDS011;49686;51.880;5.632;2023-02-15T10:50:40;45.00;;;23.85;;
63536;SDS011;49686;51.880;5.632;2023-02-15T10:53:20;37.63;;;22.55;;
63536;SDS011;49686;51.880;5.632;2023-02-15T10:55:55;43.00;;;23.27;;
63536;SDS011;49686;51.880;5.632;2023-02-15T10:58:31;36.92;;;20.48;;
63536;SDS011;49686;51.880;5.632;2023-02-15T11:01:11;38.13;;;21.80;;
63536;SDS011;49686;51.880;5.632;2023-02-15T11:03:47;35.42;;;21.70;;
63536;SDS011;49686;51.880;5.632;2023-02-15T11:06:25;38.33;;;23.33;;
63536;SDS011;49686;51.880;5.632;2023-02-15T11:08:54;38.08;;;23.20;;
63536;SDS011;49686;51.880;5.632;2023-02-15T11:11:26;38.95;;;23.52;;
63536;SDS011;49686;51.880;5.632;2023-02-15T11:13:57;37.97;;;23.48;;
63536;SDS011;49686;51.880;5.632;2023-02-15T11:16:30;40.60;;;23.55;;
63536;SDS011;49686;51.880;5.632;2023-02-15T11:19:01;38.90;;;22.42;;
63536;SDS011;49686;51.880;5.632;2023-02-15T11:21:34;39.53;;;23.02;;
63536;SDS011;49686;51.880;5.632;2023-02-15T11:24:09;37.97;;;22.65;;
63536;SDS011;49686;51.880;5.632;2023-02-15T11:26:37;35.17;;;20.38;;
63536;SDS011;49686;51.880;5.632;2023-02-15T11:29:10;35.45;;;21.02;;
63536;SDS011;49686;51.880;5.632;2023-02-15T11:31:46;37.65;;;22.85;;
63536;SDS011;49686;51.880;5.632;2023-02-15T11:34:18;39.00;;;20.35;;
63536;SDS011;49686;51.880;5.632;2023-02-15T11:36:52;40.08;;;22.73;;
63536;SDS011;49686;51.880;5.632;2023-02-15T11:39:24;35.03;;;21.60;;
63536;SDS011;49686;51.880;5.632;2023-02-15T11:41:55;38.03;;;21.17;;
63536;SDS011;49686;51.880;5.632;2023-02-15T11:44:26;37.75;;;21.42;;
63536;SDS011;49686;51.880;5.632;2023-02-15T11:46:59;35.25;;;22.05;;
63536;SDS011;49686;51.880;5.632;2023-02-15T11:49:27;37.65;;;22.88;;
63536;SDS011;49686;51.880;5.632;2023-02-15T11:51:56;34.78;;;20.45;;
63536;SDS011;49686;51.880;5.632;2023-02-15T11:54:26;36.97;;;21.50;;
63536;SDS011;49686;51.880;5.632;2023-02-15T11:56:55;35.28;;;21.55;;
63536;SDS011;49686;51.880;5.632;2023-02-15T11:59:27;38.33;;;22.42;;
63536;SDS011;49686;51.880;5.632;2023-02-15T12:01:59;35.53;;;21.55;;
63536;SDS011;49686;51.880;5.632;2023-02-15T12:04:28;34.60;;;20.83;;
63536;SDS011;49686;51.880;5.632;2023-02-15T12:06:58;37.53;;;22.55;;
63536;SDS011;49686;51.880;5.632;2023-02-15T12:09:29;37.90;;;22.90;;
63536;SDS011;49686;51.880;5.632;2023-02-15T12:14:47;37.92;;;23.60;;
63536;SDS011;49686;51.880;5.632;2023-02-15T12:17:16;39.40;;;23.42;;
63536;SDS011;49686;51.880;5.632;2023-02-15T12:19:44;34.67;;;19.58;;
63536;SDS011;49686;51.880;5.632;2023-02-15T12:22:18;36.95;;;23.40;;
63536;SDS011;49686;51.880;5.632;2023-02-15T12:24:47;35.50;;;19.30;;
63536;SDS011;49686;51.880;5.632;2023-02-15T12:27:18;37.53;;;22.48;;
63536;SDS011;49686;51.880;5.632;2023-02-15T12:29:48;34.55;;;20.77;;
63536;SDS011;49686;51.880;5.632;2023-02-15T12:32:19;34.40;;;21.10;;
63536;SDS011;49686;51.880;5.632;2023-02-15T12:34:51;36.83;;;21.95;;
63536;SDS011;49686;51.880;5.632;2023-02-15T12:37:23;38.22;;;21.20;;
63536;SDS011;49686;51.880;5.632;2023-02-15T12:39:54;37.03;;;22.88;;
63536;SDS011;49686;51.880;5.632;2023-02-15T12:42:22;36.20;;;22.92;;
63536;SDS011;49686;51.880;5.632;2023-02-15T12:44:55;37.30;;;22.40;;
63536;SDS011;49686;51.880;5.632;2023-02-15T12:47:25;33.10;;;18.77;;
63536;SDS011;49686;51.880;5.632;2023-02-15T12:50:05;39.15;;;23.50;;
63536;SDS011;49686;51.880;5.632;2023-02-15T12:52:40;36.85;;;22.63;;
63536;SDS011;49686;51.880;5.632;2023-02-15T12:55:11;38.75;;;22.60;;
63536;SDS011;49686;51.880;5.632;2023-02-15T12:57:45;34.78;;;20.90;;
63536;SDS011;49686;51.880;5.632;2023-02-15T13:02:59;35.10;;;20.90;;
63536;SDS011;49686;51.880;5.632;2023-02-15T13:05:29;37.90;;;23.42;;
63536;SDS011;49686;51.880;5.632;2023-02-15T13:07:59;33.70;;;21.42;;
63536;SDS011;49686;51.880;5.632;2023-02-15T13:10:30;36.15;;;23.13;;
63536;SDS011;49686;51.880;5.632;2023-02-15T13:12:59;36.38;;;23.38;;
63536;SDS011;49686;51.880;5.632;2023-02-15T13:15:31;37.72;;;23.13;;
63536;SDS011;49686;51.880;5.632;2023-02-15T13:18:03;36.25;;;22.20;;
63536;SDS011;49686;51.880;5.632;2023-02-15T13:20:36;35.50;;;20.52;;
63536;SDS011;49686;51.880;5.632;2023-02-15T13:23:04;35.40;;;20.58;;
63536;SDS011;49686;51.880;5.632;2023-02-15T13:25:38;38.25;;;20.30;;
63536;SDS011;49686;51.880;5.632;2023-02-15T13:28:10;37.75;;;22.02;;
63536;SDS011;49686;51.880;5.632;2023-02-15T13:30:42;33.78;;;20.70;;
63536;SDS011;49686;51.880;5.632;2023-02-15T13:33:14;34.58;;;20.58;;
63536;SDS011;49686;51.880;5.632;2023-02-15T13:35:49;39.05;;;22.67;;
63536;SDS011;49686;51.880;5.632;2023-02-15T13:38:24;36.92;;;21.17;;
63536;SDS011;49686;51.880;5.632;2023-02-15T13:41:12;37.88;;;21.25;;
63536;SDS011;49686;51.880;5.632;2023-02-15T13:43:44;37.20;;;21.25;;
63536;SDS011;49686;51.880;5.632;2023-02-15T13:46:23;38.08;;;22.23;;
63536;SDS011;49686;51.880;5.632;2023-02-15T13:49:09;33.15;;;19.40;;
63536;SDS011;49686;51.880;5.632;2023-02-15T13:51:45;36.03;;;21.98;;
63536;SDS011;49686;51.880;5.632;2023-02-15T13:57:16;33.83;;;19.30;;
63536;SDS011;49686;51.880;5.632;2023-02-15T14:00:02;37.90;;;22.30;;
63536;SDS011;49686;51.880;5.632;2023-02-15T14:02:46;33.63;;;18.92;;
63536;SDS011;49686;51.880;5.632;2023-02-15T14:05:45;32.70;;;19.60;;
63536;SDS011;49686;51.880;5.632;2023-02-15T14:10:54;39.75;;;20.17;;
63536;SDS011;49686;51.880;5.632;2023-02-15T14:13:38;36.80;;;21.15;;
63536;SDS011;49686;51.880;5.632;2023-02-15T14:16:19;37.13;;;20.85;;
63536;SDS011;49686;51.880;5.632;2023-02-15T14:18:54;37.78;;;20.75;;
63536;SDS011;49686;51.880;5.632;2023-02-15T14:21:31;33.35;;;20.40;;
63536;SDS011;49686;51.880;5.632;2023-02-15T14:24:08;30.67;;;17.42;;
63536;SDS011;49686;51.880;5.632;2023-02-15T14:26:52;37.30;;;19.77;;
63536;SDS011;49686;51.880;5.632;2023-02-15T14:29:26;42.95;;;21.52;;
63536;SDS011;49686;51.880;5.632;2023-02-15T14:32:04;35.38;;;20.75;;
63536;SDS011;49686;51.880;5.632;2023-02-15T14:34:38;29.52;;;16.65;;
63536;SDS011;49686;51.880;5.632;2023-02-15T14:37:12;39.22;;;21.73;;
63536;SDS011;49686;51.880;5.632;2023-02-15T14:39:43;36.90;;;21.45;;
63536;SDS011;49686;51.880;5.632;2023-02-15T14:42:20;36.30;;;21.42;;
63536;SDS011;49686;51.880;5.632;2023-02-15T14:44:52;38.38;;;22.67;;
63536;SDS011;49686;51.880;5.632;2023-02-15T14:47:28;36.72;;;21.17;;
63536;SDS011;49686;51.880;5.632;2023-02-15T14:53:17;32.08;;;19.05;;
63536;SDS011;49686;51.880;5.632;2023-02-15T14:58:55;39.97;;;20.35;;
63536;SDS011;49686;51.880;5.632;2023-02-15T15:01:35;37.58;;;20.92;;
63536;SDS011;49686;51.880;5.632;2023-02-15T15:06:32;40.47;;;21.13;;
63536;SDS011;49686;51.880;5.632;2023-02-15T15:09:08;39.25;;;20.88;;
63536;SDS011;49686;51.880;5.632;2023-02-15T15:11:41;36.58;;;20.27;;
63536;SDS011;49686;51.880;5.632;2023-02-15T15:17:06;35.92;;;21.73;;
63536;SDS011;49686;51.880;5.632;2023-02-15T15:22:32;35.05;;;18.92;;
63536;SDS011;49686;51.880;5.632;2023-02-15T15:25:01;38.50;;;21.98;;